sensor_id;sensor_type;location;lat;lon;timestamp;temperature;humidity
6260;DHT22;3163;51.516;4.000;2023-04-03T00:00:03;10.50;99.90
6260;DHT22;3163;51.516;4.000;2023-04-03T00:02:29;10.50;99.90
6260;DHT22;3163;51.516;4.000;2023-04-03T00:04:55;10.50;99.90
6260;DHT22;3163;51.516;4.000;2023-04-03T00:07:20;10.50;99.90
6260;DHT22;3163;51.516;4.000;2023-04-03T00:09:46;10.60;99.90
6260;DHT22;3163;51.516;4.000;2023-04-03T00:12:11;10.60;99.90
6260;DHT22;3163;51.516;4.000;2023-04-03T00:14:37;10.60;99.90
6260;DHT22;3163;51.516;4.000;2023-04-03T00:17:03;10.50;99.90
6260;DHT22;3163;51.516;4.000;2023-04-03T00:19:28;10.50;99.90
6260;DHT22;3163;51.516;4.000;2023-04-03T00:21:54;10.50;99.90
6260;DHT22;3163;51.516;4.000;2023-04-03T00:24:19;10.50;99.90
6260;DHT22;3163;51.516;4.000;2023-04-03T00:26:45;10.50;99.90
6260;DHT22;3163;51.516;4.000;2023-04-03T00:29:10;10.40;99.90
6260;DHT22;3163;51.516;4.000;2023-04-03T00:31:36;10.40;99.90
6260;DHT22;3163;51.516;4.000;2023-04-03T00:34:02;10.40;99.90
6260;DHT22;3163;51.516;4.000;2023-04-03T00:36:27;10.50;99.90
6260;DHT22;3163;51.516;4.000;2023-04-03T00:38:53;10.30;99.90
6260;DHT22;3163;51.516;4.000;2023-04-03T00:41:19;10.40;99.90
6260;DHT22;3163;51.516;4.000;2023-04-03T00:43:45;10.40;99.90
6260;DHT22;3163;51.516;4.000;2023-04-03T00:46:10;10.40;99.90
6260;DHT22;3163;51.516;4.000;2023-04-03T00:48:42;10.30;99.90
6260;DHT22;3163;51.516;4.000;2023-04-03T00:51:14;10.30;99.90
6260;DHT22;3163;51.516;4.000;2023-04-03T00:53:46;10.40;99.90
6260;DHT22;3163;51.516;4.000;2023-04-03T00:56:15;10.40;99.90
6260;DHT22;3163;51.516;4.000;2023-04-03T00:58:51;10.50;99.90
6260;DHT22;3163;51.516;4.000;2023-04-03T01:01:22;10.50;99.90
6260;DHT22;3163;51.516;4.000;2023-04-03T01:03:48;10.40;99.90
6260;DHT22;3163;51.516;4.000;2023-04-03T01:06:17;10.40;99.90
6260;DHT22;3163;51.516;4.000;2023-04-03T01:11:12;10.40;99.90
6260;DHT22;3163;51.516;4.000;2023-04-03T01:13:37;10.30;99.90
6260;DHT22;3163;51.516;4.000;2023-04-03T01:16:05;10.30;99.90
6260;DHT22;3163;51.516;4.000;2023-04-03T01:18:32;10.30;99.90
6260;DHT22;3163;51.516;4.000;2023-04-03T01:26:22;10.20;99.90
6260;DHT22;3163;51.516;4.000;2023-04-03T01:28:47;10.30;99.90
6260;DHT22;3163;51.516;4.000;2023-04-03T01:31:27;10.30;99.90
6260;DHT22;3163;51.516;4.000;2023-04-03T01:33:54;10.20;99.90
6260;DHT22;3163;51.516;4.000;2023-04-03T01:36:26;10.30;99.90
6260;DHT22;3163;51.516;4.000;2023-04-03T01:38:53;10.20;99.90
6260;DHT22;3163;51.516;4.000;2023-04-03T01:41:19;10.20;99.90
6260;DHT22;3163;51.516;4.000;2023-04-03T01:43:47;10.20;99.90
6260;DHT22;3163;51.516;4.000;2023-04-03T01:46:14;10.20;99.90
6260;DHT22;3163;51.516;4.000;2023-04-03T01:48:40;10.20;99.90
6260;DHT22;3163;51.516;4.000;2023-04-03T01:51:06;10.30;99.90
6260;DHT22;3163;51.516;4.000;2023-04-03T01:53:31;10.30;99.90
6260;DHT22;3163;51.516;4.000;2023-04-03T01:55:57;10.30;99.90
6260;DHT22;3163;51.516;4.000;2023-04-03T01:58:23;10.30;99.90
6260;DHT22;3163;51.516;4.000;2023-04-03T02:00:48;10.20;99.90
6260;DHT22;3163;51.516;4.000;2023-04-03T02:03:14;10.20;99.90
6260;DHT22;3163;51.516;4.000;2023-04-03T02:05:41;10.20;99.90
6260;DHT22;3163;51.516;4.000;2023-04-03T02:08:06;10.10;99.90
6260;DHT22;3163;51.516;4.000;2023-04-03T02:10:32;10.10;99.90
6260;DHT22;3163;51.516;4.000;2023-04-03T02:12:58;10.10;99.90
6260;DHT22;3163;51.516;4.000;2023-04-03T02:15:24;10.20;99.90
6260;DHT22;3163;51.516;4.000;2023-04-03T02:17:50;10.10;99.90
6260;DHT22;3163;51.516;4.000;2023-04-03T02:20:15;9.80;99.90
6260;DHT22;3163;51.516;4.000;2023-04-03T02:22:41;10.00;99.90
6260;DHT22;3163;51.516;4.000;2023-04-03T02:25:07;9.90;99.90
6260;DHT22;3163;51.516;4.000;2023-04-03T02:27:32;10.00;99.90
6260;DHT22;3163;51.516;4.000;2023-04-03T02:29:58;10.00;99.90
6260;DHT22;3163;51.516;4.000;2023-04-03T02:32:23;10.00;99.90
6260;DHT22;3163;51.516;4.000;2023-04-03T02:34:49;10.10;99.90
6260;DHT22;3163;51.516;4.000;2023-04-03T02:37:15;10.00;99.90
6260;DHT22;3163;51.516;4.000;2023-04-03T02:39:40;10.00;99.90
6260;DHT22;3163;51.516;4.000;2023-04-03T02:42:06;10.10;99.90
6260;DHT22;3163;51.516;4.000;2023-04-03T02:44:32;10.10;99.90
6260;DHT22;3163;51.516;4.000;2023-04-03T02:46:58;10.10;99.90
6260;DHT22;3163;51.516;4.000;2023-04-03T02:49:23;10.10;99.90
6260;DHT22;3163;51.516;4.000;2023-04-03T02:51:49;10.00;99.90
6260;DHT22;3163;51.516;4.000;2023-04-03T02:54:16;10.10;99.90
6260;DHT22;3163;51.516;4.000;2023-04-03T02:56:42;10.00;99.90
6260;DHT22;3163;51.516;4.000;2023-04-03T02:59:07;10.10;99.90
6260;DHT22;3163;51.516;4.000;2023-04-03T03:01:33;10.10;99.90
6260;DHT22;3163;51.516;4.000;2023-04-03T03:03:59;9.70;99.90
6260;DHT22;3163;51.516;4.000;2023-04-03T03:06:25;10.00;99.90
6260;DHT22;3163;51.516;4.000;2023-04-03T03:08:51;9.80;99.90
6260;DHT22;3163;51.516;4.000;2023-04-03T03:11:17;9.80;99.90
6260;DHT22;3163;51.516;4.000;2023-04-03T03:13:42;9.90;99.90
6260;DHT22;3163;51.516;4.000;2023-04-03T03:16:08;9.80;99.90
6260;DHT22;3163;51.516;4.000;2023-04-03T03:18:34;9.90;99.90
6260;DHT22;3163;51.516;4.000;2023-04-03T03:21:02;9.90;99.90
6260;DHT22;3163;51.516;4.000;2023-04-03T03:23:29;9.80;99.90
6260;DHT22;3163;51.516;4.000;2023-04-03T03:25:57;9.80;99.90
6260;DHT22;3163;51.516;4.000;2023-04-03T03:28:22;9.50;99.90
6260;DHT22;3163;51.516;4.000;2023-04-03T03:30:48;9.70;99.90
6260;DHT22;3163;51.516;4.000;2023-04-03T03:33:14;9.70;99.90
6260;DHT22;3163;51.516;4.000;2023-04-03T03:35:39;9.70;99.90
6260;DHT22;3163;51.516;4.000;2023-04-03T03:38:05;9.80;99.90
6260;DHT22;3163;51.516;4.000;2023-04-03T03:40:31;9.90;99.90
6260;DHT22;3163;51.516;4.000;2023-04-03T03:42:56;9.80;99.90
6260;DHT22;3163;51.516;4.000;2023-04-03T03:45:22;9.80;99.90
6260;DHT22;3163;51.516;4.000;2023-04-03T03:47:47;9.80;99.90
6260;DHT22;3163;51.516;4.000;2023-04-03T03:50:13;9.80;99.90
6260;DHT22;3163;51.516;4.000;2023-04-03T03:52:39;9.60;99.90
6260;DHT22;3163;51.516;4.000;2023-04-03T03:55:04;9.60;99.90
6260;DHT22;3163;51.516;4.000;2023-04-03T03:57:31;9.60;99.90
6260;DHT22;3163;51.516;4.000;2023-04-03T03:59:56;9.70;99.90
6260;DHT22;3163;51.516;4.000;2023-04-03T04:02:22;9.60;99.90
6260;DHT22;3163;51.516;4.000;2023-04-03T04:04:48;9.40;99.90
6260;DHT22;3163;51.516;4.000;2023-04-03T04:07:14;9.50;99.90
6260;DHT22;3163;51.516;4.000;2023-04-03T04:09:40;9.40;99.90
6260;DHT22;3163;51.516;4.000;2023-04-03T04:12:06;9.20;99.90
6260;DHT22;3163;51.516;4.000;2023-04-03T04:14:31;8.90;99.90
6260;DHT22;3163;51.516;4.000;2023-04-03T04:16:57;8.90;99.90
6260;DHT22;3163;51.516;4.000;2023-04-03T04:19:23;9.30;99.90
6260;DHT22;3163;51.516;4.000;2023-04-03T04:21:49;8.90;99.90
6260;DHT22;3163;51.516;4.000;2023-04-03T04:24:15;9.10;99.90
6260;DHT22;3163;51.516;4.000;2023-04-03T04:26:41;9.40;99.90
6260;DHT22;3163;51.516;4.000;2023-04-03T04:29:09;9.40;99.90
6260;DHT22;3163;51.516;4.000;2023-04-03T04:31:35;9.40;99.90
6260;DHT22;3163;51.516;4.000;2023-04-03T04:34:00;9.40;99.90
6260;DHT22;3163;51.516;4.000;2023-04-03T04:36:26;9.20;99.90
6260;DHT22;3163;51.516;4.000;2023-04-03T04:38:52;9.50;99.90
6260;DHT22;3163;51.516;4.000;2023-04-03T04:41:20;8.90;99.90
6260;DHT22;3163;51.516;4.000;2023-04-03T04:43:51;9.20;99.90
6260;DHT22;3163;51.516;4.000;2023-04-03T04:46:17;9.20;99.90
6260;DHT22;3163;51.516;4.000;2023-04-03T04:48:43;9.20;99.90
6260;DHT22;3163;51.516;4.000;2023-04-03T04:51:09;9.10;99.90
6260;DHT22;3163;51.516;4.000;2023-04-03T04:53:35;9.20;99.90
6260;DHT22;3163;51.516;4.000;2023-04-03T04:56:01;9.00;99.90
6260;DHT22;3163;51.516;4.000;2023-04-03T04:58:27;9.10;99.90
6260;DHT22;3163;51.516;4.000;2023-04-03T05:01:04;9.10;99.90
6260;DHT22;3163;51.516;4.000;2023-04-03T05:03:30;9.00;99.90
6260;DHT22;3163;51.516;4.000;2023-04-03T05:05:56;9.00;99.90
6260;DHT22;3163;51.516;4.000;2023-04-03T05:08:21;8.80;99.90
6260;DHT22;3163;51.516;4.000;2023-04-03T05:10:47;8.90;99.90
6260;DHT22;3163;51.516;4.000;2023-04-03T05:13:13;8.90;99.90
6260;DHT22;3163;51.516;4.000;2023-04-03T05:15:39;9.30;99.90
6260;DHT22;3163;51.516;4.000;2023-04-03T05:18:05;9.20;99.90
6260;DHT22;3163;51.516;4.000;2023-04-03T05:20:32;9.20;99.90
6260;DHT22;3163;51.516;4.000;2023-04-03T05:22:57;9.30;99.90
6260;DHT22;3163;51.516;4.000;2023-04-03T05:25:23;9.30;99.90
6260;DHT22;3163;51.516;4.000;2023-04-03T05:27:49;9.30;99.90
6260;DHT22;3163;51.516;4.000;2023-04-03T05:30:15;9.30;99.90
6260;DHT22;3163;51.516;4.000;2023-04-03T05:32:41;9.50;99.90
6260;DHT22;3163;51.516;4.000;2023-04-03T05:35:07;9.10;99.90
6260;DHT22;3163;51.516;4.000;2023-04-03T05:37:33;9.50;99.90
6260;DHT22;3163;51.516;4.000;2023-04-03T05:39:58;9.60;99.90
6260;DHT22;3163;51.516;4.000;2023-04-03T05:42:24;9.60;99.90
6260;DHT22;3163;51.516;4.000;2023-04-03T05:44:50;9.50;99.90
6260;DHT22;3163;51.516;4.000;2023-04-03T05:47:16;9.50;99.90
6260;DHT22;3163;51.516;4.000;2023-04-03T05:49:42;9.60;99.90
6260;DHT22;3163;51.516;4.000;2023-04-03T05:52:37;9.70;99.90
6260;DHT22;3163;51.516;4.000;2023-04-03T05:55:03;9.70;99.90
6260;DHT22;3163;51.516;4.000;2023-04-03T05:57:29;9.50;99.90
6260;DHT22;3163;51.516;4.000;2023-04-03T05:59:55;9.60;99.90
6260;DHT22;3163;51.516;4.000;2023-04-03T06:02:22;9.00;99.90
6260;DHT22;3163;51.516;4.000;2023-04-03T06:04:48;9.60;99.90
6260;DHT22;3163;51.516;4.000;2023-04-03T06:07:22;9.50;99.90
6260;DHT22;3163;51.516;4.000;2023-04-03T06:09:48;9.60;99.90
6260;DHT22;3163;51.516;4.000;2023-04-03T06:12:15;9.30;99.90
6260;DHT22;3163;51.516;4.000;2023-04-03T06:14:41;9.30;99.90
6260;DHT22;3163;51.516;4.000;2023-04-03T06:17:07;9.80;99.90
6260;DHT22;3163;51.516;4.000;2023-04-03T06:19:34;10.00;99.90
6260;DHT22;3163;51.516;4.000;2023-04-03T06:22:00;9.70;99.90
6260;DHT22;3163;51.516;4.000;2023-04-03T06:24:26;9.90;99.90
6260;DHT22;3163;51.516;4.000;2023-04-03T06:26:52;9.90;99.90
6260;DHT22;3163;51.516;4.000;2023-04-03T06:29:19;9.80;99.90
6260;DHT22;3163;51.516;4.000;2023-04-03T06:31:45;10.20;99.90
6260;DHT22;3163;51.516;4.000;2023-04-03T06:34:12;10.30;99.90
6260;DHT22;3163;51.516;4.000;2023-04-03T06:36:38;10.10;99.90
6260;DHT22;3163;51.516;4.000;2023-04-03T06:39:04;10.30;99.90
6260;DHT22;3163;51.516;4.000;2023-04-03T06:41:30;10.10;99.90
6260;DHT22;3163;51.516;4.000;2023-04-03T06:43:56;9.20;99.90
6260;DHT22;3163;51.516;4.000;2023-04-03T06:46:23;9.70;99.90
6260;DHT22;3163;51.516;4.000;2023-04-03T06:48:50;10.00;99.90
6260;DHT22;3163;51.516;4.000;2023-04-03T06:53:47;10.10;99.90
6260;DHT22;3163;51.516;4.000;2023-04-03T06:56:13;9.50;99.90
6260;DHT22;3163;51.516;4.000;2023-04-03T06:58:39;9.70;99.90
6260;DHT22;3163;51.516;4.000;2023-04-03T07:01:05;9.40;99.90
6260;DHT22;3163;51.516;4.000;2023-04-03T07:03:30;9.90;99.90
6260;DHT22;3163;51.516;4.000;2023-04-03T07:05:57;9.90;99.90
6260;DHT22;3163;51.516;4.000;2023-04-03T07:08:22;10.00;99.90
6260;DHT22;3163;51.516;4.000;2023-04-03T07:10:49;9.70;99.90
6260;DHT22;3163;51.516;4.000;2023-04-03T07:13:15;10.10;99.90
6260;DHT22;3163;51.516;4.000;2023-04-03T07:15:41;10.20;99.90
6260;DHT22;3163;51.516;4.000;2023-04-03T07:18:07;9.60;99.90
6260;DHT22;3163;51.516;4.000;2023-04-03T07:20:32;10.20;99.90
6260;DHT22;3163;51.516;4.000;2023-04-03T07:22:58;9.80;99.90
6260;DHT22;3163;51.516;4.000;2023-04-03T07:25:24;10.00;99.90
6260;DHT22;3163;51.516;4.000;2023-04-03T07:27:49;10.00;99.90
6260;DHT22;3163;51.516;4.000;2023-04-03T07:30:15;10.40;99.90
6260;DHT22;3163;51.516;4.000;2023-04-03T07:32:41;10.40;99.90
6260;DHT22;3163;51.516;4.000;2023-04-03T07:35:07;9.60;99.90
6260;DHT22;3163;51.516;4.000;2023-04-03T07:37:33;10.30;99.90
6260;DHT22;3163;51.516;4.000;2023-04-03T07:39:58;9.60;99.90
6260;DHT22;3163;51.516;4.000;2023-04-03T07:42:25;10.30;99.90
6260;DHT22;3163;51.516;4.000;2023-04-03T07:44:53;10.00;99.90
6260;DHT22;3163;51.516;4.000;2023-04-03T07:47:19;10.30;99.90
6260;DHT22;3163;51.516;4.000;2023-04-03T07:49:45;10.40;99.90
6260;DHT22;3163;51.516;4.000;2023-04-03T07:52:11;10.70;99.90
6260;DHT22;3163;51.516;4.000;2023-04-03T07:54:37;9.90;99.90
6260;DHT22;3163;51.516;4.000;2023-04-03T07:57:03;10.60;99.90
6260;DHT22;3163;51.516;4.000;2023-04-03T07:59:28;10.70;99.90
6260;DHT22;3163;51.516;4.000;2023-04-03T08:01:54;10.30;99.90
6260;DHT22;3163;51.516;4.000;2023-04-03T08:04:19;10.90;99.90
6260;DHT22;3163;51.516;4.000;2023-04-03T08:06:45;10.60;99.90
6260;DHT22;3163;51.516;4.000;2023-04-03T08:09:11;10.80;99.90
6260;DHT22;3163;51.516;4.000;2023-04-03T08:11:39;11.20;99.90
6260;DHT22;3163;51.516;4.000;2023-04-03T08:14:04;10.90;99.90
6260;DHT22;3163;51.516;4.000;2023-04-03T08:16:30;10.90;99.90
6260;DHT22;3163;51.516;4.000;2023-04-03T08:18:55;11.60;99.90
6260;DHT22;3163;51.516;4.000;2023-04-03T08:21:21;11.90;99.90
6260;DHT22;3163;51.516;4.000;2023-04-03T08:23:49;11.40;99.90
6260;DHT22;3163;51.516;4.000;2023-04-03T08:26:20;11.40;99.90
6260;DHT22;3163;51.516;4.000;2023-04-03T08:28:47;11.20;99.90
6260;DHT22;3163;51.516;4.000;2023-04-03T08:31:16;11.40;99.90
6260;DHT22;3163;51.516;4.000;2023-04-03T08:33:42;11.40;99.90
6260;DHT22;3163;51.516;4.000;2023-04-03T08:36:18;11.70;99.90
6260;DHT22;3163;51.516;4.000;2023-04-03T08:38:44;11.60;99.90
6260;DHT22;3163;51.516;4.000;2023-04-03T08:41:36;11.50;99.90
6260;DHT22;3163;51.516;4.000;2023-04-03T08:44:14;11.80;99.90
6260;DHT22;3163;51.516;4.000;2023-04-03T08:47:18;12.20;99.90
6260;DHT22;3163;51.516;4.000;2023-04-03T08:49:49;12.20;99.90
6260;DHT22;3163;51.516;4.000;2023-04-03T08:52:38;11.70;99.90
6260;DHT22;3163;51.516;4.000;2023-04-03T08:55:22;12.40;99.90
6260;DHT22;3163;51.516;4.000;2023-04-03T08:57:51;12.70;99.90
6260;DHT22;3163;51.516;4.000;2023-04-03T09:00:24;12.70;99.90
6260;DHT22;3163;51.516;4.000;2023-04-03T09:02:52;12.70;99.90
6260;DHT22;3163;51.516;4.000;2023-04-03T09:05:28;12.70;99.90
6260;DHT22;3163;51.516;4.000;2023-04-03T09:08:07;12.90;99.90
6260;DHT22;3163;51.516;4.000;2023-04-03T09:10:38;13.00;99.90
6260;DHT22;3163;51.516;4.000;2023-04-03T09:15:34;13.10;99.90
6260;DHT22;3163;51.516;4.000;2023-04-03T09:25:41;12.70;99.90
6260;DHT22;3163;51.516;4.000;2023-04-03T09:28:07;12.60;99.90
6260;DHT22;3163;51.516;4.000;2023-04-03T09:30:35;12.60;99.90
6260;DHT22;3163;51.516;4.000;2023-04-03T09:33:01;13.00;99.90
6260;DHT22;3163;51.516;4.000;2023-04-03T09:35:30;13.10;99.90
6260;DHT22;3163;51.516;4.000;2023-04-03T09:40:41;13.50;99.90
6260;DHT22;3163;51.516;4.000;2023-04-03T09:43:31;13.50;99.90
6260;DHT22;3163;51.516;4.000;2023-04-03T09:46:20;13.50;99.90
6260;DHT22;3163;51.516;4.000;2023-04-03T09:48:52;13.50;99.90
6260;DHT22;3163;51.516;4.000;2023-04-03T09:51:25;13.80;99.90
6260;DHT22;3163;51.516;4.000;2023-04-03T09:53:52;13.40;99.90
6260;DHT22;3163;51.516;4.000;2023-04-03T09:56:21;13.50;99.90
6260;DHT22;3163;51.516;4.000;2023-04-03T10:04:17;14.00;99.90
6260;DHT22;3163;51.516;4.000;2023-04-03T10:06:50;14.20;99.90
6260;DHT22;3163;51.516;4.000;2023-04-03T10:09:23;14.40;99.90
6260;DHT22;3163;51.516;4.000;2023-04-03T10:12:05;14.40;99.90
6260;DHT22;3163;51.516;4.000;2023-04-03T10:14:34;14.50;99.90
6260;DHT22;3163;51.516;4.000;2023-04-03T10:17:39;14.30;99.90
6260;DHT22;3163;51.516;4.000;2023-04-03T10:23:32;13.80;99.90
6260;DHT22;3163;51.516;4.000;2023-04-03T10:29:09;14.00;99.90
6260;DHT22;3163;51.516;4.000;2023-04-03T10:34:35;14.80;99.90
6260;DHT22;3163;51.516;4.000;2023-04-03T10:42:39;14.90;99.90
6260;DHT22;3163;51.516;4.000;2023-04-03T10:51:22;15.10;99.90
6260;DHT22;3163;51.516;4.000;2023-04-03T10:56:33;14.70;99.90
6260;DHT22;3163;51.516;4.000;2023-04-03T10:59:15;15.00;99.90
6260;DHT22;3163;51.516;4.000;2023-04-03T11:01:46;15.30;99.90
6260;DHT22;3163;51.516;4.000;2023-04-03T11:04:16;15.30;99.90
6260;DHT22;3163;51.516;4.000;2023-04-03T11:06:51;15.00;99.90
6260;DHT22;3163;51.516;4.000;2023-04-03T11:09:32;14.40;99.90
6260;DHT22;3163;51.516;4.000;2023-04-03T11:14:36;14.20;99.90
6260;DHT22;3163;51.516;4.000;2023-04-03T11:22:41;15.30;99.90
6260;DHT22;3163;51.516;4.000;2023-04-03T11:30:30;15.60;99.90
6260;DHT22;3163;51.516;4.000;2023-04-03T11:35:47;15.60;99.90
6260;DHT22;3163;51.516;4.000;2023-04-03T11:38:23;15.80;99.90
6260;DHT22;3163;51.516;4.000;2023-04-03T11:40:53;15.30;99.90
6260;DHT22;3163;51.516;4.000;2023-04-03T11:43:24;15.00;99.90
6260;DHT22;3163;51.516;4.000;2023-04-03T11:45:52;15.50;99.90
6260;DHT22;3163;51.516;4.000;2023-04-03T11:53:39;15.50;99.90
6260;DHT22;3163;51.516;4.000;2023-04-03T12:01:51;15.10;99.90
6260;DHT22;3163;51.516;4.000;2023-04-03T12:04:20;15.30;99.90
6260;DHT22;3163;51.516;4.000;2023-04-03T12:09:33;15.30;99.90
6260;DHT22;3163;51.516;4.000;2023-04-03T12:12:01;15.30;99.90
6260;DHT22;3163;51.516;4.000;2023-04-03T12:14:46;15.10;99.90
6260;DHT22;3163;51.516;4.000;2023-04-03T12:17:22;15.00;99.90
6260;DHT22;3163;51.516;4.000;2023-04-03T12:19:49;14.80;99.90
6260;DHT22;3163;51.516;4.000;2023-04-03T12:22:19;15.40;99.90
6260;DHT22;3163;51.516;4.000;2023-04-03T12:24:48;15.50;99.90
6260;DHT22;3163;51.516;4.000;2023-04-03T12:27:23;15.40;99.90
6260;DHT22;3163;51.516;4.000;2023-04-03T12:40:43;14.90;99.90
6260;DHT22;3163;51.516;4.000;2023-04-03T12:46:22;15.60;99.90
6260;DHT22;3163;51.516;4.000;2023-04-03T12:48:51;15.70;99.90
6260;DHT22;3163;51.516;4.000;2023-04-03T12:54:18;15.00;99.90
6260;DHT22;3163;51.516;4.000;2023-04-03T12:56:41;15.60;99.90
6260;DHT22;3163;51.516;4.000;2023-04-03T12:59:21;15.90;99.90
6260;DHT22;3163;51.516;4.000;2023-04-03T13:01:58;16.00;99.90
6260;DHT22;3163;51.516;4.000;2023-04-03T13:04:24;16.10;99.90
6260;DHT22;3163;51.516;4.000;2023-04-03T13:06:50;15.70;99.90
6260;DHT22;3163;51.516;4.000;2023-04-03T13:11:52;15.20;99.90
6260;DHT22;3163;51.516;4.000;2023-04-03T13:14:21;15.60;99.90
6260;DHT22;3163;51.516;4.000;2023-04-03T13:17:06;15.70;99.90
6260;DHT22;3163;51.516;4.000;2023-04-03T13:19:36;15.70;99.90
6260;DHT22;3163;51.516;4.000;2023-04-03T13:22:05;15.40;99.90
6260;DHT22;3163;51.516;4.000;2023-04-03T13:24:34;15.40;99.90
6260;DHT22;3163;51.516;4.000;2023-04-03T13:27:01;15.60;99.90
6260;DHT22;3163;51.516;4.000;2023-04-03T13:29:41;16.00;99.90
6260;DHT22;3163;51.516;4.000;2023-04-03T13:32:13;16.00;99.90
6260;DHT22;3163;51.516;4.000;2023-04-03T13:34:43;15.80;99.90
6260;DHT22;3163;51.516;4.000;2023-04-03T13:37:30;16.00;99.90
6260;DHT22;3163;51.516;4.000;2023-04-03T13:40:16;15.80;99.90
6260;DHT22;3163;51.516;4.000;2023-04-03T13:42:42;15.70;99.90
6260;DHT22;3163;51.516;4.000;2023-04-03T13:45:28;15.50;99.90
6260;DHT22;3163;51.516;4.000;2023-04-03T13:48:17;15.60;99.90
6260;DHT22;3163;51.516;4.000;2023-04-03T13:50:58;15.60;99.90
6260;DHT22;3163;51.516;4.000;2023-04-03T13:53:25;15.50;99.90
6260;DHT22;3163;51.516;4.000;2023-04-03T13:56:54;15.30;99.90
6260;DHT22;3163;51.516;4.000;2023-04-03T13:59:22;15.60;99.90
6260;DHT22;3163;51.516;4.000;2023-04-03T14:07:02;15.50;99.90
6260;DHT22;3163;51.516;4.000;2023-04-03T14:09:28;15.10;99.90
6260;DHT22;3163;51.516;4.000;2023-04-03T14:11:58;15.30;99.90
6260;DHT22;3163;51.516;4.000;2023-04-03T14:14:31;15.70;99.90
6260;DHT22;3163;51.516;4.000;2023-04-03T14:17:00;15.00;99.90
6260;DHT22;3163;51.516;4.000;2023-04-03T14:19:31;14.90;99.90
6260;DHT22;3163;51.516;4.000;2023-04-03T14:21:59;15.60;99.90
6260;DHT22;3163;51.516;4.000;2023-04-03T14:24:25;15.40;99.90
6260;DHT22;3163;51.516;4.000;2023-04-03T14:26:54;15.60;99.90
6260;DHT22;3163;51.516;4.000;2023-04-03T14:29:21;15.50;99.90
6260;DHT22;3163;51.516;4.000;2023-04-03T14:31:48;15.50;99.90
6260;DHT22;3163;51.516;4.000;2023-04-03T14:34:15;15.70;99.90
6260;DHT22;3163;51.516;4.000;2023-04-03T14:36:42;15.50;99.90
6260;DHT22;3163;51.516;4.000;2023-04-03T14:39:11;15.70;93.10
6260;DHT22;3163;51.516;4.000;2023-04-03T14:41:42;15.40;99.90
6260;DHT22;3163;51.516;4.000;2023-04-03T14:44:07;15.30;99.90
6260;DHT22;3163;51.516;4.000;2023-04-03T14:46:35;15.50;99.90
6260;DHT22;3163;51.516;4.000;2023-04-03T14:49:03;15.50;99.90
6260;DHT22;3163;51.516;4.000;2023-04-03T14:51:33;15.10;99.90
6260;DHT22;3163;51.516;4.000;2023-04-03T14:53:59;15.40;99.90
6260;DHT22;3163;51.516;4.000;2023-04-03T14:56:28;15.40;99.90
6260;DHT22;3163;51.516;4.000;2023-04-03T14:58:58;15.40;99.90
6260;DHT22;3163;51.516;4.000;2023-04-03T15:01:25;15.00;99.90
6260;DHT22;3163;51.516;4.000;2023-04-03T15:03:50;15.20;99.90
6260;DHT22;3163;51.516;4.000;2023-04-03T15:06:16;15.00;99.90
6260;DHT22;3163;51.516;4.000;2023-04-03T15:08:42;15.20;99.90
6260;DHT22;3163;51.516;4.000;2023-04-03T15:11:11;15.00;99.90
6260;DHT22;3163;51.516;4.000;2023-04-03T15:13:37;15.10;99.90
6260;DHT22;3163;51.516;4.000;2023-04-03T15:16:05;15.20;99.90
6260;DHT22;3163;51.516;4.000;2023-04-03T15:18:35;14.90;90.60
6260;DHT22;3163;51.516;4.000;2023-04-03T15:21:03;15.10;99.90
6260;DHT22;3163;51.516;4.000;2023-04-03T15:23:28;14.90;99.90
6260;DHT22;3163;51.516;4.000;2023-04-03T15:25:55;15.00;99.90
6260;DHT22;3163;51.516;4.000;2023-04-03T15:28:28;14.60;99.90
6260;DHT22;3163;51.516;4.000;2023-04-03T15:30:56;14.70;99.90
6260;DHT22;3163;51.516;4.000;2023-04-03T15:33:22;14.60;99.90
6260;DHT22;3163;51.516;4.000;2023-04-03T15:35:48;14.50;99.90
6260;DHT22;3163;51.516;4.000;2023-04-03T15:38:13;14.50;99.90
6260;DHT22;3163;51.516;4.000;2023-04-03T15:40:39;14.80;99.90
6260;DHT22;3163;51.516;4.000;2023-04-03T15:43:06;14.70;99.90
6260;DHT22;3163;51.516;4.000;2023-04-03T15:45:34;14.60;99.90
6260;DHT22;3163;51.516;4.000;2023-04-03T15:48:04;14.70;99.90
6260;DHT22;3163;51.516;4.000;2023-04-03T15:50:32;14.80;99.90
6260;DHT22;3163;51.516;4.000;2023-04-03T15:52:58;14.70;99.90
6260;DHT22;3163;51.516;4.000;2023-04-03T15:55:25;14.50;99.90
6260;DHT22;3163;51.516;4.000;2023-04-03T15:57:52;14.80;99.90
6260;DHT22;3163;51.516;4.000;2023-04-03T16:00:19;14.60;99.90
6260;DHT22;3163;51.516;4.000;2023-04-03T16:02:46;14.20;99.90
6260;DHT22;3163;51.516;4.000;2023-04-03T16:05:13;14.40;99.90
6260;DHT22;3163;51.516;4.000;2023-04-03T16:07:40;14.50;99.90
6260;DHT22;3163;51.516;4.000;2023-04-03T16:10:07;14.50;99.90
6260;DHT22;3163;51.516;4.000;2023-04-03T16:12:33;14.30;99.90
6260;DHT22;3163;51.516;4.000;2023-04-03T16:14:59;14.30;99.90
6260;DHT22;3163;51.516;4.000;2023-04-03T16:17:26;14.10;99.90
6260;DHT22;3163;51.516;4.000;2023-04-03T16:19:53;14.00;99.90
6260;DHT22;3163;51.516;4.000;2023-04-03T16:22:19;14.10;99.90
6260;DHT22;3163;51.516;4.000;2023-04-03T16:24:45;14.00;99.90
6260;DHT22;3163;51.516;4.000;2023-04-03T16:27:10;14.00;99.90
6260;DHT22;3163;51.516;4.000;2023-04-03T16:29:36;14.10;99.90
6260;DHT22;3163;51.516;4.000;2023-04-03T16:32:02;14.00;99.90
6260;DHT22;3163;51.516;4.000;2023-04-03T16:34:28;13.80;99.90
6260;DHT22;3163;51.516;4.000;2023-04-03T16:36:59;13.80;99.90
6260;DHT22;3163;51.516;4.000;2023-04-03T16:39:25;13.80;99.90
6260;DHT22;3163;51.516;4.000;2023-04-03T16:41:51;13.70;99.90
6260;DHT22;3163;51.516;4.000;2023-04-03T16:44:16;13.70;99.90
6260;DHT22;3163;51.516;4.000;2023-04-03T16:46:42;13.70;99.90
6260;DHT22;3163;51.516;4.000;2023-04-03T16:49:07;13.60;99.90
6260;DHT22;3163;51.516;4.000;2023-04-03T16:51:33;13.70;99.90
6260;DHT22;3163;51.516;4.000;2023-04-03T16:53:59;13.70;99.90
6260;DHT22;3163;51.516;4.000;2023-04-03T16:56:25;13.60;99.90
6260;DHT22;3163;51.516;4.000;2023-04-03T16:58:52;13.50;99.90
6260;DHT22;3163;51.516;4.000;2023-04-03T17:01:20;13.60;99.90
6260;DHT22;3163;51.516;4.000;2023-04-03T17:03:46;13.20;99.90
6260;DHT22;3163;51.516;4.000;2023-04-03T17:06:17;13.20;99.90
6260;DHT22;3163;51.516;4.000;2023-04-03T17:08:46;13.20;99.90
6260;DHT22;3163;51.516;4.000;2023-04-03T17:11:12;13.10;99.90
6260;DHT22;3163;51.516;4.000;2023-04-03T17:13:38;13.20;99.90
6260;DHT22;3163;51.516;4.000;2023-04-03T17:16:07;13.10;99.90
6260;DHT22;3163;51.516;4.000;2023-04-03T17:18:34;13.10;99.90
6260;DHT22;3163;51.516;4.000;2023-04-03T17:21:00;13.20;99.90
6260;DHT22;3163;51.516;4.000;2023-04-03T17:23:27;13.10;99.90
6260;DHT22;3163;51.516;4.000;2023-04-03T17:25:56;13.00;99.90
6260;DHT22;3163;51.516;4.000;2023-04-03T17:28:22;13.10;99.90
6260;DHT22;3163;51.516;4.000;2023-04-03T17:31:01;13.10;99.90
6260;DHT22;3163;51.516;4.000;2023-04-03T17:33:28;13.00;99.90
6260;DHT22;3163;51.516;4.000;2023-04-03T17:35:59;13.10;99.90
6260;DHT22;3163;51.516;4.000;2023-04-03T17:38:27;13.00;99.90
6260;DHT22;3163;51.516;4.000;2023-04-03T17:40:57;13.20;99.90
6260;DHT22;3163;51.516;4.000;2023-04-03T17:43:23;12.90;99.90
6260;DHT22;3163;51.516;4.000;2023-04-03T17:45:49;12.90;99.90
6260;DHT22;3163;51.516;4.000;2023-04-03T17:48:15;12.80;99.90
6260;DHT22;3163;51.516;4.000;2023-04-03T17:50:40;12.70;99.90
6260;DHT22;3163;51.516;4.000;2023-04-03T17:53:06;12.80;99.90
6260;DHT22;3163;51.516;4.000;2023-04-03T17:55:31;12.70;99.90
6260;DHT22;3163;51.516;4.000;2023-04-03T17:57:57;12.80;99.90